createdAt,value
2023-03-12T00:01:57.197Z,69.75
2023-03-12T00:05:20.694Z,69.79
2023-03-12T00:08:42.801Z,70.01
2023-03-12T00:12:04.532Z,69.69
2023-03-12T00:15:26.396Z,70.19
2023-03-12T00:18:50.051Z,69.35
2023-03-12T00:22:14.181Z,69.88
2023-03-12T00:25:35.901Z,69.70
2023-03-12T00:28:57.214Z,69.22
2023-03-12T00:32:19.195Z,69.97
2023-03-12T00:35:40.813Z,69.57
2023-03-12T00:39:04.181Z,69.45
2023-03-12T00:42:25.754Z,69.47
2023-03-12T00:45:47.560Z,70.12
2023-03-12T00:49:09.467Z,69.58
2023-03-12T00:52:31.473Z,69.55
2023-03-12T00:55:54.615Z,69.43
2023-03-12T00:59:16.905Z,70.03
2023-03-12T01:02:40.017Z,69.66
2023-03-12T01:06:01.667Z,69.72
2023-03-12T01:09:23.301Z,69.67
2023-03-12T01:12:48.628Z,70.36
2023-03-12T01:17:56.869Z,70.40
2023-03-12T01:21:18.845Z,69.82
2023-03-12T01:24:40.909Z,69.94
2023-03-12T01:28:02.310Z,70.06
2023-03-12T01:31:24.246Z,70.07
2023-03-12T01:34:47.369Z,70.09
2023-03-12T01:38:10.374Z,70.00
2023-03-12T01:41:33.747Z,70.20
2023-03-12T01:44:57.767Z,70.19
2023-03-12T01:48:21.119Z,69.91
2023-03-12T01:51:47.911Z,70.30
2023-03-12T01:55:14.279Z,70.20
2023-03-12T01:58:41.660Z,70.25
2023-03-12T02:02:04.980Z,70.61
2023-03-12T02:05:31.731Z,70.69
2023-03-12T02:08:55.732Z,71.30
2023-03-12T02:12:18.765Z,70.99
2023-03-12T02:15:41.444Z,71.23
2023-03-12T02:19:06.047Z,71.40
2023-03-12T02:22:28.268Z,71.42
2023-03-12T02:25:53.515Z,71.72
2023-03-12T02:29:15.696Z,71.16
2023-03-12T02:32:40.700Z,71.51
2023-03-12T02:36:02.506Z,71.08
2023-03-12T02:39:24.813Z,71.09
2023-03-12T02:42:48.004Z,71.69
2023-03-12T02:46:10.418Z,71.65
2023-03-12T02:49:34.538Z,71.43
2023-03-12T02:52:56.390Z,72.13
2023-03-12T02:56:18.362Z,71.77
2023-03-12T02:59:41.518Z,71.65
2023-03-12T03:03:03.744Z,71.39
2023-03-12T03:06:25.770Z,72.39
2023-03-12T03:09:49.180Z,71.63
2023-03-12T03:13:11.004Z,72.11
2023-03-12T03:16:35.278Z,71.71
2023-03-12T03:19:57.182Z,72.16
2023-03-12T03:23:18.696Z,72.25
2023-03-12T03:26:40.483Z,72.88
2023-03-12T03:30:02.352Z,73.09
2023-03-12T03:33:28.544Z,72.46
2023-03-12T03:36:50.315Z,72.76
2023-03-12T03:40:13.856Z,73.25
2023-03-12T03:43:35.503Z,73.44
2023-03-12T03:46:57.700Z,73.48
2023-03-12T03:50:20.900Z,73.37
2023-03-12T03:53:42.649Z,73.34
2023-03-12T03:57:04.861Z,73.65
2023-03-12T04:00:26.474Z,73.86
2023-03-12T04:03:48.325Z,73.93
2023-03-12T04:07:11.996Z,74.31
2023-03-12T04:10:33.939Z,74.21
2023-03-12T04:13:55.925Z,74.86
2023-03-12T04:17:20.956Z,74.25
2023-03-12T04:20:43.216Z,73.84
2023-03-12T04:24:07.394Z,74.12
2023-03-12T04:27:30.182Z,74.36
2023-03-12T04:30:56.499Z,74.14
2023-03-12T04:34:18.255Z,74.71
2023-03-12T04:37:42.138Z,74.45
2023-03-12T04:41:08.700Z,75.01
2023-03-12T04:44:33.160Z,75.50
2023-03-12T04:47:54.860Z,74.75
2023-03-12T04:51:16.901Z,75.03
2023-03-12T04:54:38.658Z,75.55
2023-03-12T04:58:02.358Z,75.48
2023-03-12T05:01:26.934Z,75.23
2023-03-12T05:04:48.860Z,76.02
2023-03-12T05:08:10.491Z,75.77
2023-03-12T05:11:32.938Z,75.78
2023-03-12T05:14:56.167Z,76.03
2023-03-12T05:18:20.306Z,76.06
2023-03-12T05:21:43.642Z,75.49
2023-03-12T05:25:07.084Z,76.13
2023-03-12T05:28:29.877Z,75.39
2023-03-12T05:31:56.716Z,75.90
2023-03-12T05:35:18.808Z,75.38
2023-03-12T05:38:42.683Z,75.55
2023-03-12T05:42:05.757Z,75.41
2023-03-12T05:45:28.169Z,75.93
2023-03-12T05:48:53.414Z,75.86
2023-03-12T05:52:15.646Z,76.40
2023-03-12T05:55:39.388Z,76.29
2023-03-12T05:59:01.160Z,75.84
2023-03-12T06:02:23.929Z,75.97
2023-03-12T06:05:48.048Z,76.58
2023-03-12T06:09:09.924Z,75.87
2023-03-12T06:12:31.528Z,77.00
2023-03-12T06:15:53.458Z,76.97
2023-03-12T06:19:15.451Z,76.46
2023-03-12T06:22:40.750Z,76.17
2023-03-12T06:26:02.295Z,76.21
2023-03-12T06:29:24.164Z,76.49
2023-03-12T06:32:46.230Z,76.83
2023-03-12T06:36:09.584Z,76.76
2023-03-12T06:39:32.570Z,76.58
2023-03-12T06:42:54.278Z,77.11
2023-03-12T06:46:17.764Z,76.76
2023-03-12T06:49:39.683Z,76.69
2023-03-12T06:53:01.387Z,77.01
2023-03-12T06:56:24.700Z,76.12
2023-03-12T06:59:48.707Z,76.95
2023-03-12T07:03:12.113Z,75.85
2023-03-12T07:06:33.959Z,75.71
2023-03-12T07:09:55.570Z,76.41
2023-03-12T07:13:18.972Z,76.56
2023-03-12T07:16:40.626Z,75.77
2023-03-12T07:20:02.396Z,75.47
2023-03-12T07:23:24.635Z,75.51
2023-03-12T07:26:46.531Z,75.63
2023-03-12T07:30:11.407Z,75.60
2023-03-12T07:33:33.947Z,74.92
2023-03-12T07:36:56.388Z,75.23
2023-03-12T07:40:18.271Z,75.02
2023-03-12T07:43:39.749Z,74.48
2023-03-12T07:47:16.544Z,74.18
2023-03-12T07:50:44.472Z,73.68
2023-03-12T07:54:06.308Z,73.69
2023-03-12T07:57:27.818Z,72.95
2023-03-12T08:00:49.787Z,73.25
2023-03-12T08:04:13.469Z,71.94
2023-03-12T08:07:35.659Z,71.65
2023-03-12T08:10:57.861Z,71.84
2023-03-12T08:14:19.741Z,70.86
2023-03-12T08:17:41.668Z,70.37
2023-03-12T08:21:04.962Z,69.45
2023-03-12T08:24:26.777Z,68.87
2023-03-12T08:27:48.429Z,69.58
2023-03-12T08:31:10.645Z,68.96
2023-03-12T08:34:32.547Z,68.03
2023-03-12T08:37:57.031Z,66.60
2023-03-12T08:41:18.972Z,66.41
2023-03-12T08:44:41.372Z,65.18
2023-03-12T08:48:03.289Z,65.59
2023-03-12T08:51:24.824Z,63.74
2023-03-12T08:54:48.061Z,62.84
2023-03-12T08:58:09.640Z,63.08
2023-03-12T09:01:31.301Z,62.87
2023-03-12T09:04:53.359Z,61.94
2023-03-12T09:08:15.375Z,62.46
2023-03-12T09:11:41.018Z,61.28
2023-03-12T09:15:04.506Z,61.43
2023-03-12T09:18:26.481Z,59.95
2023-03-12T09:21:48.037Z,60.03
2023-03-12T09:25:11.900Z,58.69
2023-03-12T09:28:34.927Z,57.14
2023-03-12T09:31:56.725Z,57.62
2023-03-12T09:35:18.931Z,55.86
2023-03-12T09:38:40.657Z,56.20
2023-03-12T09:42:04.672Z,55.79
2023-03-12T09:45:32.088Z,55.59
2023-03-12T09:48:57.661Z,55.79
2023-03-12T09:52:25.741Z,56.49
2023-03-12T09:55:50.541Z,55.71
2023-03-12T09:59:13.544Z,55.43
2023-03-12T10:03:13.627Z,55.48
2023-03-12T10:06:45.197Z,56.29
2023-03-12T10:10:22.170Z,54.74
2023-03-12T10:13:58.544Z,56.21
2023-03-12T10:17:44.940Z,56.47
2023-03-12T10:21:18.806Z,55.93
2023-03-12T10:24:54.687Z,55.80
2023-03-12T10:28:19.664Z,55.74
2023-03-12T10:31:49.584Z,55.80
2023-03-12T10:35:17.054Z,55.53
2023-03-12T10:38:39.737Z,56.49
2023-03-12T10:42:03.008Z,55.64
2023-03-12T10:45:32.944Z,55.61
2023-03-12T10:49:24.452Z,56.68
2023-03-12T10:52:48.233Z,56.69
2023-03-12T10:56:11.937Z,57.62
2023-03-12T10:59:37.000Z,57.88
2023-03-12T11:03:00.854Z,57.22
2023-03-12T11:06:24.767Z,57.07
2023-03-12T11:09:46.899Z,56.37
2023-03-12T11:13:23.284Z,56.47
2023-03-12T11:16:46.929Z,56.71
2023-03-12T11:20:25.979Z,57.31
2023-03-12T11:24:07.250Z,56.56
2023-03-12T11:27:40.341Z,56.55
2023-03-12T11:31:03.220Z,56.14
2023-03-12T11:34:30.225Z,55.96
2023-03-12T11:38:02.320Z,56.41
2023-03-12T11:41:37.684Z,56.46
2023-03-12T11:45:07.116Z,56.13
2023-03-12T11:48:41.906Z,56.42
2023-03-12T11:52:11.235Z,56.76
2023-03-12T11:55:45.171Z,55.62
2023-03-12T11:59:32.311Z,55.92
2023-03-12T12:03:23.709Z,55.26
2023-03-12T12:06:58.429Z,55.13
2023-03-12T12:10:30.358Z,55.55
2023-03-12T12:14:07.600Z,55.39
2023-03-12T12:17:41.711Z,55.28
2023-03-12T12:21:37.133Z,54.49
2023-03-12T12:25:31.105Z,54.83
2023-03-12T12:29:13.432Z,54.67
2023-03-12T12:32:49.488Z,54.81
2023-03-12T12:36:11.951Z,54.71
2023-03-12T12:39:37.248Z,54.87
2023-03-12T12:43:17.745Z,54.68
2023-03-12T12:46:43.506Z,53.49
2023-03-12T12:50:06.075Z,53.72
2023-03-12T12:53:31.424Z,52.85
2023-03-12T12:56:58.988Z,52.93
2023-03-12T13:00:44.592Z,53.64
2023-03-12T13:04:12.083Z,53.13
2023-03-12T13:07:37.877Z,53.64
2023-03-12T13:11:16.142Z,52.35
2023-03-12T13:14:47.534Z,52.17
2023-03-12T13:18:22.052Z,51.53
2023-03-12T13:21:59.325Z,51.36
2023-03-12T13:25:32.990Z,51.24
2023-03-12T13:29:12.204Z,51.10
2023-03-12T13:32:57.552Z,49.75
2023-03-12T13:36:27.119Z,50.18
2023-03-12T13:39:48.729Z,48.36
2023-03-12T13:43:14.215Z,47.79
2023-03-12T13:46:40.654Z,46.54
2023-03-12T13:50:06.639Z,45.99
2023-03-12T13:53:36.089Z,46.94
2023-03-12T13:57:01.204Z,46.65
2023-03-12T14:00:29.118Z,47.06
2023-03-12T14:03:55.379Z,46.56
2023-03-12T14:07:41.203Z,45.91
2023-03-12T14:11:21.961Z,46.20
2023-03-12T14:15:09.578Z,46.58
2023-03-12T14:18:33.793Z,45.53
2023-03-12T14:21:58.505Z,45.47
2023-03-12T14:25:30.573Z,44.73
2023-03-12T14:29:00.176Z,44.37
2023-03-12T14:32:25.301Z,43.19
2023-03-12T14:35:52.363Z,43.48
2023-03-12T14:39:26.439Z,42.88
2023-03-12T14:42:48.602Z,42.43
2023-03-12T14:46:17.416Z,39.85
2023-03-12T14:49:42.520Z,40.29
2023-03-12T14:53:13.736Z,39.88
2023-03-12T14:56:35.981Z,41.04
2023-03-12T14:59:59.351Z,42.35
2023-03-12T15:03:22.464Z,41.98
2023-03-12T15:06:46.748Z,41.94
2023-03-12T15:10:21.153Z,42.35
2023-03-12T15:13:43.269Z,42.40
2023-03-12T15:17:06.373Z,44.02
2023-03-12T15:20:31.494Z,43.41
2023-03-12T15:23:54.121Z,43.88
2023-03-12T15:27:32.835Z,45.03
2023-03-12T15:31:11.804Z,45.64
2023-03-12T15:34:35.844Z,46.75
2023-03-12T15:37:59.296Z,48.11
2023-03-12T15:41:23.759Z,48.92
2023-03-12T15:44:47.784Z,49.89
2023-03-12T15:48:23.477Z,50.53
2023-03-12T15:52:00.426Z,50.98
2023-03-12T15:55:27.240Z,51.30
2023-03-12T15:59:00.735Z,51.81
2023-03-12T16:02:37.605Z,51.68
2023-03-12T16:05:59.458Z,51.67
2023-03-12T16:09:24.573Z,51.99
2023-03-12T16:12:50.161Z,51.99
2023-03-12T16:16:14.379Z,50.78
2023-03-12T16:19:36.233Z,51.10
2023-03-12T16:22:58.314Z,50.88
2023-03-12T16:26:20.092Z,50.92
2023-03-12T16:29:43.211Z,51.04
2023-03-12T16:33:09.168Z,50.00
2023-03-12T16:36:31.208Z,50.31
2023-03-12T16:39:53.023Z,50.24
2023-03-12T16:43:18.672Z,50.97
2023-03-12T16:46:41.547Z,51.66
2023-03-12T16:50:03.748Z,51.69
2023-03-12T16:53:26.504Z,51.42
2023-03-12T16:56:50.909Z,52.04
2023-03-12T17:00:15.885Z,52.68
2023-03-12T17:03:43.680Z,53.81
2023-03-12T17:07:05.483Z,54.38
2023-03-12T17:10:28.101Z,54.89
2023-03-12T17:13:53.072Z,55.45
2023-03-12T17:17:15.147Z,57.20
2023-03-12T17:20:40.031Z,58.30
2023-03-12T17:24:01.932Z,58.97
2023-03-12T17:27:23.752Z,59.81
2023-03-12T17:30:47.359Z,59.93
2023-03-12T17:34:09.135Z,59.90
2023-03-12T17:37:32.252Z,60.28
2023-03-12T17:40:54.236Z,60.25
2023-03-12T17:44:16.027Z,60.57
2023-03-12T17:47:38.330Z,60.73
2023-03-12T17:51:00.105Z,60.72
2023-03-12T17:54:23.151Z,60.58
2023-03-12T17:57:44.726Z,60.56
2023-03-12T18:01:06.354Z,60.70
2023-03-12T18:04:28.288Z,61.59
2023-03-12T18:07:51.118Z,62.16
2023-03-12T18:11:14.408Z,63.34
2023-03-12T18:14:36.144Z,63.79
2023-03-12T18:17:58.849Z,64.58
2023-03-12T18:21:20.892Z,64.89
2023-03-12T18:24:43.040Z,64.99
2023-03-12T18:28:06.483Z,66.41
2023-03-12T18:31:28.634Z,66.24
2023-03-12T18:34:50.300Z,66.90
2023-03-12T18:38:11.784Z,66.70
2023-03-12T18:41:33.832Z,66.71
2023-03-12T18:44:56.848Z,67.12
2023-03-12T18:48:18.798Z,66.98
2023-03-12T18:51:40.520Z,67.85
2023-03-12T18:55:02.381Z,67.99
2023-03-12T18:58:25.343Z,68.84
2023-03-12T19:01:48.774Z,69.30
2023-03-12T19:05:11.061Z,69.82
2023-03-12T19:08:33.116Z,70.47
2023-03-12T19:11:55.020Z,70.78
2023-03-12T19:15:16.961Z,71.65
2023-03-12T19:18:40.920Z,71.58
2023-03-12T19:22:03.627Z,72.55
2023-03-12T19:25:25.284Z,72.74
2023-03-12T19:28:47.296Z,73.55
2023-03-12T19:32:09.242Z,74.16
2023-03-12T19:35:32.522Z,74.99
2023-03-12T19:38:54.497Z,76.11
2023-03-12T19:42:16.425Z,76.61
2023-03-12T19:45:38.738Z,77.02
2023-03-12T19:49:00.259Z,77.99
2023-03-12T19:52:23.587Z,77.97
2023-03-12T19:55:47.903Z,78.39
2023-03-12T19:59:09.430Z,78.71
2023-03-12T20:02:31.351Z,79.16
2023-03-12T20:05:53.011Z,79.25
2023-03-12T20:09:16.357Z,79.09
2023-03-12T20:12:38.281Z,79.87
2023-03-12T20:16:00.089Z,80.25
2023-03-12T20:19:21.662Z,80.21
2023-03-12T20:22:43.556Z,80.55
2023-03-12T20:26:06.514Z,81.16
2023-03-12T20:29:28.524Z,80.99
2023-03-12T20:32:50.233Z,81.05
2023-03-12T20:36:14.025Z,81.66
2023-03-12T20:39:35.643Z,81.42
2023-03-12T20:42:59.063Z,81.42
2023-03-12T20:46:21.021Z,82.34
2023-03-12T20:49:43.041Z,82.95
2023-03-12T20:53:05.008Z,82.84
2023-03-12T20:56:27.596Z,83.00
2023-03-12T20:59:50.941Z,83.09
2023-03-12T21:03:13.971Z,83.18
2023-03-12T21:06:35.585Z,83.66
2023-03-12T21:09:57.784Z,83.56
2023-03-12T21:13:21.270Z,84.00
2023-03-12T21:16:44.748Z,83.98
2023-03-12T21:20:09.918Z,84.12
2023-03-12T21:23:31.691Z,84.14
2023-03-12T21:26:53.426Z,84.06
2023-03-12T21:30:15.658Z,84.51
2023-03-12T21:33:39.148Z,84.39
2023-03-12T21:37:01.048Z,84.74
2023-03-12T21:40:22.937Z,84.67
2023-03-12T21:43:45.222Z,85.02
2023-03-12T21:47:06.807Z,85.09
2023-03-12T21:50:30.096Z,85.54
2023-03-12T21:53:54.747Z,85.64
2023-03-12T21:57:16.246Z,85.99
2023-03-12T22:00:38.255Z,86.15
2023-03-12T22:04:01.066Z,86.36
2023-03-12T22:07:24.119Z,86.88
2023-03-12T22:10:45.955Z,87.57
2023-03-12T22:14:07.682Z,87.78
2023-03-12T22:17:29.802Z,87.38
2023-03-12T22:20:52.843Z,87.96
2023-03-12T22:24:16.056Z,88.15
2023-03-12T22:27:37.824Z,88.32
2023-03-12T22:31:00.423Z,88.59
2023-03-12T22:34:22.037Z,88.88
2023-03-12T22:37:45.467Z,88.80
2023-03-12T22:41:16.684Z,88.89
2023-03-12T22:44:41.243Z,89.21
2023-03-12T22:48:03.256Z,89.36
2023-03-12T22:51:26.060Z,89.54
2023-03-12T22:54:47.876Z,89.59
2023-03-12T22:58:11.672Z,89.72
2023-03-12T23:01:33.559Z,89.94
2023-03-12T23:04:55.338Z,90.20
2023-03-12T23:08:17.137Z,90.37
2023-03-12T23:11:41.065Z,90.57
2023-03-12T23:15:04.824Z,90.12
2023-03-12T23:18:26.621Z,90.09
2023-03-12T23:21:48.270Z,90.02
2023-03-12T23:25:10.621Z,90.13
2023-03-12T23:28:33.147Z,89.69
2023-03-12T23:31:56.725Z,89.88
2023-03-12T23:35:18.758Z,90.15
2023-03-12T23:38:40.640Z,89.97
2023-03-12T23:42:02.294Z,89.53
2023-03-12T23:45:24.247Z,89.43
2023-03-12T23:48:47.505Z,89.30
2023-03-12T23:52:09.078Z,89.21
2023-03-12T23:55:30.894Z,89.55
2023-03-12T23:58:52.871Z,89.18
